createdAt,value
2022-08-10T00:00:36.096Z,1021.6
2022-08-10T00:01:39.223Z,1021.5
2022-08-10T00:02:42.635Z,1021.6
2022-08-10T00:03:45.555Z,1021.6
2022-08-10T00:04:48.194Z,1021.6
2022-08-10T00:05:53.508Z,1021.6
2022-08-10T00:06:56.242Z,1021.5
2022-08-10T00:07:58.864Z,1021.5
2022-08-10T00:09:01.488Z,1021.6
2022-08-10T00:10:03.885Z,1021.5
2022-08-10T00:11:16.844Z,1021.5
2022-08-10T00:12:20.283Z,1021.5
2022-08-10T00:13:22.655Z,1021.5
2022-08-10T00:14:25.043Z,1021.5
2022-08-10T00:15:55.393Z,1021.5
2022-08-10T00:16:58.972Z,1021.5
2022-08-10T00:18:01.354Z,1021.5
2022-08-10T00:19:03.684Z,1021.5
2022-08-10T00:20:09.320Z,1021.5
2022-08-10T00:21:13.695Z,1021.5
2022-08-10T00:22:17.619Z,1021.5
2022-08-10T00:23:19.977Z,1021.5
2022-08-10T00:24:22.881Z,1021.4
2022-08-10T00:25:25.898Z,1021.5
2022-08-10T00:28:04.035Z,1021.5
2022-08-10T00:29:10.471Z,1021.5
2022-08-10T00:30:14.922Z,1021.5
2022-08-10T00:31:17.823Z,1021.5
2022-08-10T00:32:19.919Z,1021.5
2022-08-10T00:33:22.511Z,1021.5
2022-08-10T00:34:25.141Z,1021.5
2022-08-10T00:35:28.032Z,1021.5
2022-08-10T00:36:32.376Z,1021.5
2022-08-10T00:37:36.429Z,1021.5
2022-08-10T00:38:38.783Z,1021.5
2022-08-10T00:39:41.296Z,1021.4
2022-08-10T00:40:47.153Z,1021.4
2022-08-10T00:42:08.321Z,1021.4
2022-08-10T00:43:11.775Z,1021.4
2022-08-10T00:44:15.034Z,1021.3
2022-08-10T00:45:18.223Z,1021.3
2022-08-10T00:46:20.852Z,1021.3
2022-08-10T00:47:38.125Z,1021.3
2022-08-10T00:48:40.979Z,1021.3
2022-08-10T00:49:44.227Z,1021.3
2022-08-10T00:50:47.005Z,1021.3
2022-08-10T00:51:49.703Z,1021.3
2022-08-10T00:52:52.362Z,1021.3
2022-08-10T00:53:54.739Z,1021.3
2022-08-10T00:54:58.199Z,1021.3
2022-08-10T00:57:18.529Z,1021.3
2022-08-10T00:58:21.832Z,1021.3
2022-08-10T00:59:27.398Z,1021.3
2022-08-10T01:00:29.692Z,1021.3
2022-08-10T01:02:11.741Z,1021.3
2022-08-10T01:03:14.825Z,1021.3
2022-08-10T01:06:04.178Z,1021.4
2022-08-10T01:07:07.020Z,1021.3
2022-08-10T01:08:09.717Z,1021.4
2022-08-10T01:09:12.641Z,1021.4
2022-08-10T01:10:16.115Z,1021.4
2022-08-10T01:12:41.542Z,1021.4
2022-08-10T01:13:44.662Z,1021.4
2022-08-10T01:14:47.798Z,1021.4
2022-08-10T01:15:50.095Z,1021.4
2022-08-10T01:16:53.010Z,1021.4
2022-08-10T01:17:56.190Z,1021.4
2022-08-10T01:19:01.261Z,1021.4
2022-08-10T01:20:03.816Z,1021.4
2022-08-10T01:21:08.197Z,1021.4
2022-08-10T01:22:11.037Z,1021.4
2022-08-10T01:23:13.678Z,1021.4
2022-08-10T01:24:20.445Z,1021.5
2022-08-10T01:25:28.263Z,1021.4
2022-08-10T01:26:32.507Z,1021.4
2022-08-10T01:27:43.720Z,1021.4
2022-08-10T01:28:46.008Z,1021.4
2022-08-10T01:29:48.645Z,1021.4
2022-08-10T01:30:52.162Z,1021.4
2022-08-10T01:31:57.779Z,1021.4
2022-08-10T01:33:00.640Z,1021.4
2022-08-10T01:34:03.383Z,1021.4
2022-08-10T01:35:06.348Z,1021.4
2022-08-10T01:36:11.915Z,1021.4
2022-08-10T01:37:15.100Z,1021.4
2022-08-10T01:38:18.058Z,1021.4
2022-08-10T01:39:20.538Z,1021.4
2022-08-10T01:40:23.220Z,1021.4
2022-08-10T01:41:26.828Z,1021.4
2022-08-10T01:42:49.760Z,1021.4
2022-08-10T01:43:53.009Z,1021.4
2022-08-10T01:44:56.176Z,1021.4
2022-08-10T01:45:59.137Z,1021.4
2022-08-10T01:47:02.500Z,1021.4
2022-08-10T01:48:17.172Z,1021.4
2022-08-10T01:49:20.579Z,1021.4
2022-08-10T01:50:23.753Z,1021.4
2022-08-10T01:51:26.375Z,1021.4
2022-08-10T01:52:28.529Z,1021.4
2022-08-10T01:53:41.875Z,1021.3
2022-08-10T01:54:45.062Z,1021.3
2022-08-10T01:55:48.520Z,1021.3
2022-08-10T01:56:51.158Z,1021.3
2022-08-10T01:57:54.068Z,1021.3
2022-08-10T01:58:56.919Z,1021.3
2022-08-10T02:00:03.543Z,1021.3
2022-08-10T02:01:06.625Z,1021.4
2022-08-10T02:02:08.880Z,1021.4
2022-08-10T02:03:11.727Z,1021.4
2022-08-10T02:04:14.024Z,1021.3
2022-08-10T02:05:16.537Z,1021.4
2022-08-10T02:06:19.519Z,1021.4
2022-08-10T02:07:21.791Z,1021.4
2022-08-10T02:08:24.408Z,1021.3
2022-08-10T02:09:27.598Z,1021.3
2022-08-10T02:10:30.778Z,1021.4
2022-08-10T02:12:09.018Z,1021.4
2022-08-10T02:13:12.477Z,1021.3
2022-08-10T02:14:14.762Z,1021.4
2022-08-10T02:15:18.204Z,1021.4
2022-08-10T02:16:20.438Z,1021.3
2022-08-10T02:18:01.920Z,1021.4
2022-08-10T02:19:04.626Z,1021.3
2022-08-10T02:20:12.900Z,1021.4
2022-08-10T02:21:16.357Z,1021.4
2022-08-10T02:22:39.217Z,1021.4
2022-08-10T02:23:42.416Z,1021.4
2022-08-10T02:25:01.396Z,1021.4
2022-08-10T02:26:04.013Z,1021.4
2022-08-10T02:27:06.701Z,1021.4
2022-08-10T02:28:09.599Z,1021.4
2022-08-10T02:29:12.218Z,1021.4
2022-08-10T02:30:15.133Z,1021.4
2022-08-10T02:31:23.066Z,1021.4
2022-08-10T02:32:38.688Z,1021.4
2022-08-10T02:33:59.416Z,1021.4
2022-08-10T02:35:03.448Z,1021.4
2022-08-10T02:36:06.288Z,1021.4
2022-08-10T02:37:13.444Z,1021.4
2022-08-10T02:38:16.512Z,1021.3
2022-08-10T02:39:19.106Z,1021.4
2022-08-10T02:45:28.971Z,1021.3
2022-08-10T02:46:37.492Z,1021.4
2022-08-10T02:47:52.724Z,1021.4
2022-08-10T02:48:55.702Z,1021.4
2022-08-10T02:50:00.582Z,1021.4
2022-08-10T02:51:03.211Z,1021.5
2022-08-10T02:52:08.901Z,1021.4
2022-08-10T02:53:57.447Z,1021.4
2022-08-10T02:55:18.699Z,1021.4
2022-08-10T02:56:34.814Z,1021.4
2022-08-10T02:58:17.416Z,1021.4
2022-08-10T02:59:21.075Z,1021.4
2022-08-10T03:00:23.715Z,1021.4
2022-08-10T03:01:26.758Z,1021.5
2022-08-10T03:02:30.109Z,1021.4
2022-08-10T03:03:31.971Z,1021.4
2022-08-10T03:04:58.567Z,1021.4
2022-08-10T03:06:01.689Z,1021.5
2022-08-10T03:07:04.194Z,1021.4
2022-08-10T03:08:07.106Z,1021.5
2022-08-10T03:09:09.469Z,1021.4
2022-08-10T03:10:14.865Z,1021.5
2022-08-10T03:12:38.571Z,1021.5
2022-08-10T03:13:41.957Z,1021.5
2022-08-10T03:14:44.661Z,1021.5
2022-08-10T03:15:47.630Z,1021.5
2022-08-10T03:16:50.272Z,1021.5
2022-08-10T03:17:59.069Z,1021.5
2022-08-10T03:19:01.711Z,1021.5
2022-08-10T03:20:40.024Z,1021.5
2022-08-10T03:21:42.843Z,1021.5
2022-08-10T03:22:52.104Z,1021.5
2022-08-10T03:23:54.739Z,1021.5
2022-08-10T03:24:57.382Z,1021.5
2022-08-10T03:26:00.315Z,1021.5
2022-08-10T03:27:02.701Z,1021.5
2022-08-10T03:28:04.786Z,1021.5
2022-08-10T03:29:07.413Z,1021.4
2022-08-10T03:30:34.417Z,1021.5
2022-08-10T03:31:40.575Z,1021.5
2022-08-10T03:32:43.593Z,1021.5
2022-08-10T03:33:46.503Z,1021.5
2022-08-10T03:34:49.466Z,1021.5
2022-08-10T03:36:45.301Z,1021.5
2022-08-10T03:37:48.418Z,1021.5
2022-08-10T03:39:01.999Z,1021.5
2022-08-10T03:40:04.886Z,1021.5
2022-08-10T03:41:07.793Z,1021.5
2022-08-10T03:42:10.702Z,1021.5
2022-08-10T03:43:13.619Z,1021.5
2022-08-10T03:44:17.888Z,1021.5
2022-08-10T03:45:20.810Z,1021.5
2022-08-10T03:46:24.324Z,1021.5
2022-08-10T03:47:27.231Z,1021.5
2022-08-10T03:48:50.125Z,1021.5
2022-08-10T03:49:53.309Z,1021.5
2022-08-10T03:50:55.441Z,1021.5
2022-08-10T03:51:59.257Z,1021.6
2022-08-10T03:53:01.948Z,1021.6
2022-08-10T03:54:07.947Z,1021.6
2022-08-10T03:55:11.729Z,1021.6
2022-08-10T03:57:49.904Z,1021.6
2022-08-10T03:58:53.639Z,1021.6
2022-08-10T03:59:56.821Z,1021.6
2022-08-10T04:01:00.254Z,1021.6
2022-08-10T04:02:48.485Z,1021.6
2022-08-10T04:04:13.568Z,1021.6
2022-08-10T04:05:39.392Z,1021.6
2022-08-10T04:06:42.507Z,1021.6
2022-08-10T04:07:46.008Z,1021.6
2022-08-10T04:08:48.690Z,1021.6
2022-08-10T04:09:56.517Z,1021.6
2022-08-10T04:11:01.768Z,1021.6
2022-08-10T04:12:04.409Z,1021.6
2022-08-10T04:13:07.258Z,1021.6
2022-08-10T04:14:52.285Z,1021.6
2022-08-10T04:15:56.943Z,1021.7
2022-08-10T04:17:14.273Z,1021.7
2022-08-10T04:18:16.733Z,1021.7
2022-08-10T04:19:19.120Z,1021.7
2022-08-10T04:20:21.481Z,1021.7
2022-08-10T04:21:24.664Z,1021.7
2022-08-10T04:22:27.252Z,1021.7
2022-08-10T04:23:29.893Z,1021.6
2022-08-10T04:24:33.753Z,1021.7
2022-08-10T04:25:36.672Z,1021.6
2022-08-10T04:26:39.242Z,1021.7
2022-08-10T04:27:41.881Z,1021.7
2022-08-10T04:28:44.779Z,1021.7
2022-08-10T04:29:47.348Z,1021.7
2022-08-10T04:30:50.182Z,1021.7
2022-08-10T04:31:52.887Z,1021.7
2022-08-10T04:32:56.086Z,1021.7
2022-08-10T04:34:08.455Z,1021.7
2022-08-10T04:35:12.171Z,1021.7
2022-08-10T04:36:14.196Z,1021.7
2022-08-10T04:37:17.399Z,1021.7
2022-08-10T04:38:20.033Z,1021.8
2022-08-10T04:39:22.334Z,1021.7
2022-08-10T04:40:31.229Z,1021.7
2022-08-10T04:41:33.992Z,1021.8
2022-08-10T04:42:37.202Z,1021.8
2022-08-10T04:43:40.115Z,1021.8
2022-08-10T04:44:42.507Z,1021.8
2022-08-10T04:45:51.807Z,1021.8
2022-08-10T04:47:00.994Z,1021.8
2022-08-10T04:48:04.678Z,1021.8
2022-08-10T04:50:59.819Z,1021.8
2022-08-10T04:52:03.148Z,1021.8
2022-08-10T04:53:05.832Z,1021.9
2022-08-10T04:54:11.987Z,1021.9
2022-08-10T04:55:19.475Z,1021.9
2022-08-10T04:56:32.547Z,1021.9
2022-08-10T04:57:35.544Z,1021.9
2022-08-10T04:58:37.889Z,1021.8
2022-08-10T04:59:40.786Z,1021.9
2022-08-10T05:00:43.548Z,1021.9
2022-08-10T05:02:32.065Z,1021.9
2022-08-10T05:04:39.514Z,1021.9
2022-08-10T05:05:42.126Z,1021.9
2022-08-10T05:06:44.743Z,1021.8
2022-08-10T05:07:57.315Z,1021.8
2022-08-10T05:09:00.226Z,1021.8
2022-08-10T05:10:13.074Z,1021.9
2022-08-10T05:11:24.626Z,1021.8
2022-08-10T05:12:27.375Z,1021.9
2022-08-10T05:13:30.776Z,1021.9
2022-08-10T05:14:33.691Z,1021.8
2022-08-10T05:15:35.922Z,1021.9
2022-08-10T05:16:38.821Z,1021.9
2022-08-10T05:18:04.626Z,1021.9
2022-08-10T05:19:14.309Z,1021.9
2022-08-10T05:20:16.384Z,1021.9
2022-08-10T05:22:05.201Z,1021.9
2022-08-10T05:23:07.295Z,1022
2022-08-10T05:24:10.254Z,1022
2022-08-10T05:25:13.478Z,1022
2022-08-10T05:26:16.231Z,1022
2022-08-10T05:27:19.430Z,1022
2022-08-10T05:28:30.677Z,1022
2022-08-10T05:29:37.775Z,1022
2022-08-10T05:30:40.620Z,1022
2022-08-10T05:31:43.263Z,1022
2022-08-10T05:33:00.900Z,1022
2022-08-10T05:34:21.436Z,1022
2022-08-10T05:35:24.218Z,1022
2022-08-10T05:36:26.628Z,1022.1
2022-08-10T05:38:14.398Z,1022
2022-08-10T05:39:28.766Z,1022.1
2022-08-10T05:40:34.872Z,1022
2022-08-10T05:41:45.448Z,1022
2022-08-10T05:42:55.481Z,1022
2022-08-10T05:44:00.550Z,1022
2022-08-10T05:45:03.115Z,1022
2022-08-10T05:46:21.221Z,1021.9
2022-08-10T05:47:24.046Z,1022
2022-08-10T05:50:05.617Z,1022
2022-08-10T05:51:08.700Z,1022
2022-08-10T05:52:11.895Z,1022
2022-08-10T05:54:05.906Z,1021.9
2022-08-10T05:55:08.987Z,1021.9
2022-08-10T05:56:11.904Z,1021.9
2022-08-10T05:57:13.980Z,1021.9
2022-08-10T05:58:16.894Z,1021.9
2022-08-10T06:00:40.725Z,1021.9
2022-08-10T06:02:35.930Z,1021.9
2022-08-10T06:03:38.845Z,1021.9
2022-08-10T06:04:42.324Z,1021.8
2022-08-10T06:05:45.298Z,1021.9
2022-08-10T06:06:48.486Z,1021.8
2022-08-10T06:07:51.007Z,1021.9
2022-08-10T06:08:53.591Z,1021.9
2022-08-10T06:10:00.598Z,1021.8
2022-08-10T06:12:30.470Z,1021.8
2022-08-10T06:14:29.272Z,1021.8
2022-08-10T06:15:52.996Z,1021.8
2022-08-10T06:16:55.561Z,1021.8
2022-08-10T06:18:02.795Z,1021.8
2022-08-10T06:19:05.430Z,1021.8
2022-08-10T06:20:08.338Z,1021.8
2022-08-10T06:21:11.518Z,1021.9
2022-08-10T06:22:14.741Z,1021.8
2022-08-10T06:23:17.648Z,1021.9
2022-08-10T06:24:27.465Z,1021.8
2022-08-10T06:26:15.641Z,1021.9
2022-08-10T06:27:35.168Z,1021.8
2022-08-10T06:28:37.757Z,1021.8
2022-08-10T06:29:40.663Z,1021.8
2022-08-10T06:30:43.515Z,1021.8
2022-08-10T06:31:49.994Z,1021.8
2022-08-10T06:32:53.168Z,1021.8
2022-08-10T06:33:55.806Z,1021.8
2022-08-10T06:34:58.448Z,1021.8
2022-08-10T06:36:00.878Z,1021.8
2022-08-10T06:37:03.809Z,1021.8
2022-08-10T06:38:06.427Z,1021.8
2022-08-10T06:39:34.388Z,1021.8
2022-08-10T06:40:39.383Z,1021.8
2022-08-10T06:42:17.838Z,1021.8
2022-08-10T06:43:21.393Z,1021.8
2022-08-10T06:44:24.348Z,1021.8
2022-08-10T06:45:27.483Z,1021.8
2022-08-10T06:46:30.114Z,1021.8
2022-08-10T06:47:33.068Z,1021.9
2022-08-10T06:48:35.923Z,1021.9
2022-08-10T06:49:38.345Z,1021.9
2022-08-10T06:50:59.350Z,1021.9
2022-08-10T06:52:02.319Z,1021.9
2022-08-10T06:53:05.171Z,1021.9
2022-08-10T06:54:08.343Z,1021.9
2022-08-10T06:55:11.635Z,1021.9
2022-08-10T06:57:18.352Z,1021.9
2022-08-10T06:58:27.389Z,1021.9
2022-08-10T06:59:30.014Z,1021.8
2022-08-10T07:00:34.805Z,1021.9
2022-08-10T07:01:37.465Z,1021.9
2022-08-10T07:02:40.761Z,1021.9
2022-08-10T07:03:43.187Z,1021.8
2022-08-10T07:04:46.142Z,1021.8
2022-08-10T07:05:51.583Z,1021.8
2022-08-10T07:06:54.658Z,1021.8
2022-08-10T07:07:58.128Z,1021.8
2022-08-10T07:09:01.094Z,1021.8
2022-08-10T07:10:03.662Z,1021.8
2022-08-10T07:11:12.260Z,1021.8
2022-08-10T07:12:14.916Z,1021.8
2022-08-10T07:14:18.639Z,1021.8
2022-08-10T07:15:21.566Z,1021.8
2022-08-10T07:17:02.044Z,1021.9
2022-08-10T07:18:04.681Z,1021.9
2022-08-10T07:19:07.261Z,1021.9
2022-08-10T07:20:10.227Z,1021.9
2022-08-10T07:21:13.145Z,1021.9
2022-08-10T07:23:59.974Z,1021.8
2022-08-10T07:25:07.578Z,1021.8
2022-08-10T07:26:10.147Z,1021.8
2022-08-10T07:27:12.822Z,1021.8
2022-08-10T07:28:15.733Z,1021.8
2022-08-10T07:29:54.732Z,1021.8
2022-08-10T07:30:57.732Z,1021.8
2022-08-10T07:32:00.927Z,1021.8
2022-08-10T07:33:03.332Z,1021.8
2022-08-10T07:34:06.593Z,1021.8
2022-08-10T07:35:09.374Z,1021.9
2022-08-10T07:36:12.576Z,1021.9
2022-08-10T07:37:16.035Z,1021.8
2022-08-10T07:38:19.513Z,1021.8
2022-08-10T07:40:04.903Z,1021.9
2022-08-10T07:41:09.117Z,1021.9
2022-08-10T07:42:11.976Z,1021.9
2022-08-10T07:43:14.407Z,1021.9
2022-08-10T07:44:17.592Z,1021.9
2022-08-10T07:45:20.834Z,1021.9
2022-08-10T07:46:23.170Z,1021.9
2022-08-10T07:47:54.963Z,1022
2022-08-10T07:48:58.538Z,1022
2022-08-10T07:50:01.169Z,1022
2022-08-10T07:51:03.839Z,1022
2022-08-10T07:52:05.893Z,1022
2022-08-10T07:53:08.526Z,1022
2022-08-10T07:54:10.880Z,1022
2022-08-10T07:55:13.509Z,1022
2022-08-10T07:56:49.547Z,1022
2022-08-10T07:57:53.282Z,1022
2022-08-10T07:58:56.196Z,1022
2022-08-10T07:59:59.601Z,1022
2022-08-10T08:01:02.316Z,1022
2022-08-10T08:02:05.848Z,1022
2022-08-10T08:03:09.887Z,1022.1
2022-08-10T08:04:12.837Z,1022
2022-08-10T08:06:03.435Z,1022
2022-08-10T08:07:21.440Z,1022
2022-08-10T08:08:23.894Z,1021.9
2022-08-10T08:09:31.500Z,1022
2022-08-10T08:10:34.140Z,1022
2022-08-10T08:11:37.413Z,1022
2022-08-10T08:12:40.498Z,1022
2022-08-10T08:13:48.253Z,1021.9
2022-08-10T08:14:55.070Z,1021.9
2022-08-10T08:16:21.914Z,1021.9
2022-08-10T08:17:36.709Z,1021.9
2022-08-10T08:19:25.799Z,1021.9
2022-08-10T08:20:57.933Z,1022
2022-08-10T08:25:36.097Z,1021.9
2022-08-10T08:26:38.392Z,1021.9
2022-08-10T08:27:48.160Z,1021.9
2022-08-10T08:28:52.699Z,1021.9
2022-08-10T08:29:55.051Z,1022
2022-08-10T08:30:57.693Z,1021.9
2022-08-10T08:32:03.686Z,1021.9
2022-08-10T08:33:07.523Z,1021.9
2022-08-10T08:34:10.637Z,1021.9
2022-08-10T08:35:13.608Z,1021.9
2022-08-10T08:36:16.455Z,1021.8
2022-08-10T08:38:33.867Z,1021.8
2022-08-10T08:39:38.401Z,1021.8
2022-08-10T08:40:45.368Z,1021.7
2022-08-10T08:41:48.281Z,1021.7
2022-08-10T08:42:51.540Z,1021.7
2022-08-10T08:43:54.507Z,1021.7
2022-08-10T08:44:56.856Z,1021.7
2022-08-10T08:46:02.571Z,1021.7
2022-08-10T08:48:06.500Z,1021.7
2022-08-10T08:49:09.681Z,1021.7
2022-08-10T08:50:12.257Z,1021.7
2022-08-10T08:52:17.541Z,1021.7
2022-08-10T08:53:23.073Z,1021.8
2022-08-10T08:56:07.226Z,1021.8
2022-08-10T08:57:10.198Z,1021.7
2022-08-10T08:58:52.204Z,1021.7
2022-08-10T08:59:54.879Z,1021.7
2022-08-10T09:00:57.559Z,1021.7
2022-08-10T09:02:00.863Z,1021.7
2022-08-10T09:03:04.573Z,1021.7
2022-08-10T09:04:21.424Z,1021.7
2022-08-10T09:05:26.514Z,1021.7
2022-08-10T09:06:29.413Z,1021.7
2022-08-10T09:08:02.979Z,1021.7
2022-08-10T09:09:05.814Z,1021.7
2022-08-10T09:10:08.931Z,1021.7
2022-08-10T09:11:11.621Z,1021.7
2022-08-10T09:12:13.971Z,1021.7
2022-08-10T09:13:16.307Z,1021.6
2022-08-10T09:14:26.153Z,1021.6
2022-08-10T09:15:41.542Z,1021.6
2022-08-10T09:16:45.009Z,1021.6
2022-08-10T09:17:47.136Z,1021.7
2022-08-10T09:18:50.647Z,1021.7
2022-08-10T09:19:53.352Z,1021.6
2022-08-10T09:20:55.705Z,1021.7
2022-08-10T09:22:19.278Z,1021.7
2022-08-10T09:24:05.648Z,1021.6
2022-08-10T09:25:09.016Z,1021.6
2022-08-10T09:26:11.731Z,1021.6
2022-08-10T09:27:14.644Z,1021.5
2022-08-10T09:28:16.802Z,1021.6
2022-08-10T09:29:20.209Z,1021.5
2022-08-10T09:30:31.169Z,1021.6
2022-08-10T09:36:32.111Z,1021.5
2022-08-10T09:38:03.173Z,1021.5
2022-08-10T09:39:06.694Z,1021.5
2022-08-10T09:41:04.158Z,1021.5
2022-08-10T09:42:17.041Z,1021.5
2022-08-10T09:43:27.075Z,1021.5
2022-08-10T09:44:30.549Z,1021.5
2022-08-10T09:45:33.180Z,1021.4
2022-08-10T09:46:36.102Z,1021.4
2022-08-10T09:48:03.308Z,1021.5
2022-08-10T09:49:06.763Z,1021.5
2022-08-10T09:50:09.893Z,1021.5
2022-08-10T09:51:45.673Z,1021.4
2022-08-10T09:52:59.604Z,1021.4
2022-08-10T09:54:02.514Z,1021.5
2022-08-10T09:55:05.648Z,1021.4
2022-08-10T09:56:22.295Z,1021.5
2022-08-10T09:57:56.930Z,1021.4
2022-08-10T10:00:02.454Z,1021.4
2022-08-10T10:01:58.022Z,1021.4
2022-08-10T10:03:07.410Z,1021.4
2022-08-10T10:04:10.645Z,1021.4
2022-08-10T10:05:13.829Z,1021.4
2022-08-10T10:06:17.021Z,1021.4
2022-08-10T10:07:19.102Z,1021.4
2022-08-10T10:08:22.681Z,1021.4
2022-08-10T10:09:27.508Z,1021.3
2022-08-10T10:10:29.515Z,1021.3
2022-08-10T10:11:32.703Z,1021.3
2022-08-10T10:12:36.204Z,1021.3
2022-08-10T10:14:06.466Z,1021.3
2022-08-10T10:15:26.001Z,1021.2
2022-08-10T10:16:29.171Z,1021.2
2022-08-10T10:17:31.830Z,1021.2
2022-08-10T10:18:34.671Z,1021.2
2022-08-10T10:19:41.383Z,1021.1
2022-08-10T10:20:44.024Z,1021.2
2022-08-10T10:21:56.712Z,1021.2
2022-08-10T10:22:59.598Z,1021.1
2022-08-10T10:24:23.074Z,1021.1
2022-08-10T10:25:52.011Z,1021.2
2022-08-10T10:27:20.430Z,1021.1
2022-08-10T10:28:23.321Z,1021.1
2022-08-10T10:31:00.328Z,1021.1
2022-08-10T10:32:03.526Z,1021.1
2022-08-10T10:33:06.146Z,1021.1
2022-08-10T10:34:17.066Z,1021
2022-08-10T10:35:20.264Z,1021.1
2022-08-10T10:36:22.904Z,1021
2022-08-10T10:38:03.702Z,1021
2022-08-10T10:39:06.925Z,1021
2022-08-10T10:40:13.208Z,1021
2022-08-10T10:41:16.632Z,1020.9
2022-08-10T10:42:45.670Z,1020.9
2022-08-10T10:43:49.192Z,1020.9
2022-08-10T10:44:51.470Z,1020.9
2022-08-10T10:45:53.756Z,1020.9
2022-08-10T10:46:56.901Z,1020.9
2022-08-10T10:47:58.973Z,1020.9
2022-08-10T10:49:01.616Z,1020.8
2022-08-10T10:50:03.984Z,1020.8
2022-08-10T10:51:11.184Z,1020.8
2022-08-10T10:52:14.317Z,1020.8
2022-08-10T10:53:17.018Z,1020.8
2022-08-10T10:54:20.246Z,1020.8
2022-08-10T10:55:22.859Z,1020.8
2022-08-10T10:56:25.760Z,1020.8
2022-08-10T10:58:01.464Z,1020.8
2022-08-10T10:59:57.341Z,1020.8
2022-08-10T11:01:01.224Z,1020.8
2022-08-10T11:02:04.135Z,1020.8
2022-08-10T11:03:06.420Z,1020.8
2022-08-10T11:04:08.785Z,1020.8
2022-08-10T11:05:11.152Z,1020.8
2022-08-10T11:06:14.072Z,1020.7
2022-08-10T11:07:23.693Z,1020.8
2022-08-10T11:08:41.227Z,1020.8
2022-08-10T11:10:32.158Z,1020.8
2022-08-10T11:12:04.732Z,1020.7
2022-08-10T11:14:29.027Z,1020.8
2022-08-10T11:15:34.813Z,1020.8
2022-08-10T11:16:59.905Z,1020.8
2022-08-10T11:18:02.873Z,1020.8
2022-08-10T11:19:05.443Z,1020.7
2022-08-10T11:20:08.345Z,1020.7
2022-08-10T11:21:14.000Z,1020.7
2022-08-10T11:22:23.732Z,1020.7
2022-08-10T11:23:26.106Z,1020.7
2022-08-10T11:24:50.510Z,1020.7
2022-08-10T11:25:55.607Z,1020.6
2022-08-10T11:27:02.241Z,1020.6
2022-08-10T11:28:05.084Z,1020.6
2022-08-10T11:29:08.291Z,1020.6
2022-08-10T11:30:11.472Z,1020.6
2022-08-10T11:31:14.102Z,1020.5
2022-08-10T11:32:21.991Z,1020.6
2022-08-10T11:33:36.878Z,1020.6
2022-08-10T11:36:14.796Z,1020.5
2022-08-10T11:37:17.971Z,1020.5
2022-08-10T11:38:47.422Z,1020.5
2022-08-10T11:40:17.726Z,1020.5
2022-08-10T11:42:19.218Z,1020.4
2022-08-10T11:43:38.793Z,1020.5
2022-08-10T11:44:41.647Z,1020.5
2022-08-10T11:45:54.269Z,1020.4
2022-08-10T11:47:09.517Z,1020.4
2022-08-10T11:48:56.262Z,1020.4
2022-08-10T11:50:06.514Z,1020.4
2022-08-10T11:51:09.073Z,1020.4
2022-08-10T11:52:15.311Z,1020.4
2022-08-10T11:53:17.936Z,1020.3
2022-08-10T11:54:20.557Z,1020.3
2022-08-10T11:55:23.175Z,1020.3
2022-08-10T11:56:26.569Z,1020.3
2022-08-10T11:57:55.645Z,1020.3
2022-08-10T11:59:17.517Z,1020.3
2022-08-10T12:00:20.497Z,1020.3
2022-08-10T12:01:23.400Z,1020.3
2022-08-10T12:02:25.925Z,1020.3
2022-08-10T12:03:35.057Z,1020.3
2022-08-10T12:04:38.199Z,1020.3
2022-08-10T12:05:54.852Z,1020.3
2022-08-10T12:06:57.568Z,1020.2
2022-08-10T12:10:13.690Z,1020.3
2022-08-10T12:11:25.379Z,1020.3
2022-08-10T12:12:28.378Z,1020.3
2022-08-10T12:13:31.406Z,1020.3
2022-08-10T12:14:33.570Z,1020.2
2022-08-10T12:15:35.986Z,1020.2
2022-08-10T12:16:38.283Z,1020.2
2022-08-10T12:17:40.870Z,1020.2
2022-08-10T12:18:44.450Z,1020.2
2022-08-10T12:20:03.836Z,1020.2
2022-08-10T12:21:06.949Z,1020.2
2022-08-10T12:22:09.865Z,1020.2
2022-08-10T12:23:12.802Z,1020.1
2022-08-10T12:24:15.510Z,1020.2
2022-08-10T12:25:58.686Z,1020.1
2022-08-10T12:27:01.915Z,1020.1
2022-08-10T12:28:03.934Z,1020
2022-08-10T12:29:06.557Z,1020.1
2022-08-10T12:30:09.471Z,1020.1
2022-08-10T12:31:12.672Z,1020
2022-08-10T12:32:15.336Z,1020.1
2022-08-10T12:33:27.519Z,1020
2022-08-10T12:34:30.635Z,1020
2022-08-10T12:35:33.822Z,1020
2022-08-10T12:36:36.478Z,1020
2022-08-10T12:37:38.605Z,1020
2022-08-10T12:38:41.737Z,1019.9
2022-08-10T12:39:45.904Z,1019.9
2022-08-10T12:40:49.025Z,1019.9
2022-08-10T12:41:51.584Z,1019.8
2022-08-10T12:44:05.870Z,1019.9
2022-08-10T12:45:12.270Z,1019.8
2022-08-10T12:46:15.135Z,1019.8
2022-08-10T12:47:17.752Z,1019.8
2022-08-10T12:48:20.657Z,1019.8
2022-08-10T12:49:23.829Z,1019.8
2022-08-10T12:50:34.081Z,1019.8
2022-08-10T12:51:37.001Z,1019.8
2022-08-10T12:52:50.595Z,1019.8
2022-08-10T12:53:52.937Z,1019.9
2022-08-10T12:54:55.555Z,1019.8
2022-08-10T12:55:58.537Z,1019.8
2022-08-10T12:57:01.379Z,1019.8
2022-08-10T12:59:01.557Z,1019.8
2022-08-10T13:00:04.500Z,1019.7
2022-08-10T13:01:19.322Z,1019.7
2022-08-10T13:02:23.050Z,1019.7
2022-08-10T13:04:24.466Z,1019.7
2022-08-10T13:05:27.512Z,1019.7
2022-08-10T13:06:33.986Z,1019.7
2022-08-10T13:08:28.181Z,1019.6
2022-08-10T13:09:31.125Z,1019.6
2022-08-10T13:10:33.547Z,1019.6
2022-08-10T13:12:40.587Z,1019.6
2022-08-10T13:13:44.149Z,1019.6
2022-08-10T13:14:55.862Z,1019.5
2022-08-10T13:15:58.182Z,1019.5
2022-08-10T13:17:01.037Z,1019.6
2022-08-10T13:18:04.203Z,1019.6
2022-08-10T13:19:06.560Z,1019.6
2022-08-10T13:20:14.566Z,1019.6
2022-08-10T13:21:21.297Z,1019.6
2022-08-10T13:22:23.695Z,1019.6
2022-08-10T13:23:27.103Z,1019.6
2022-08-10T13:24:30.130Z,1019.6
2022-08-10T13:25:32.696Z,1019.5
2022-08-10T13:26:36.945Z,1019.5
2022-08-10T13:29:49.375Z,1019.5
2022-08-10T13:31:05.336Z,1019.5
2022-08-10T13:32:18.697Z,1019.5
2022-08-10T13:34:45.063Z,1019.5
2022-08-10T13:35:56.430Z,1019.5
2022-08-10T13:37:04.122Z,1019.4
2022-08-10T13:38:07.372Z,1019.4
2022-08-10T13:39:10.463Z,1019.4
2022-08-10T13:40:13.341Z,1019.4
2022-08-10T13:41:16.050Z,1019.4
2022-08-10T13:42:32.848Z,1019.3
2022-08-10T13:43:36.351Z,1019.4
2022-08-10T13:44:38.927Z,1019.4
2022-08-10T13:45:47.796Z,1019.3
2022-08-10T13:46:52.960Z,1019.4
2022-08-10T13:47:55.589Z,1019.3
2022-08-10T13:48:59.229Z,1019.4
2022-08-10T13:50:02.892Z,1019.4
2022-08-10T13:51:10.156Z,1019.4
2022-08-10T13:52:12.837Z,1019.3
2022-08-10T13:53:16.190Z,1019.3
2022-08-10T13:54:18.835Z,1019.3
2022-08-10T13:55:22.021Z,1019.3
2022-08-10T13:56:24.936Z,1019.3
2022-08-10T13:57:27.351Z,1019.3
2022-08-10T13:58:31.837Z,1019.3
2022-08-10T14:00:38.583Z,1019.3
2022-08-10T14:01:42.106Z,1019.3
2022-08-10T14:02:49.122Z,1019.3
2022-08-10T14:03:51.137Z,1019.2
2022-08-10T14:04:54.117Z,1019.2
2022-08-10T14:05:56.513Z,1019.2
2022-08-10T14:06:59.696Z,1019.2
2022-08-10T14:08:02.599Z,1019.2
2022-08-10T14:09:05.521Z,1019.2
2022-08-10T14:10:08.469Z,1019.2
2022-08-10T14:11:12.568Z,1019.1
2022-08-10T14:12:15.551Z,1019.1
2022-08-10T14:13:18.731Z,1019.1
2022-08-10T14:14:21.925Z,1019.1
2022-08-10T14:15:24.778Z,1019.1
2022-08-10T14:16:27.695Z,1019.1
2022-08-10T14:17:30.537Z,1019
2022-08-10T14:18:33.527Z,1019
2022-08-10T14:19:43.344Z,1019
2022-08-10T14:21:14.422Z,1019
2022-08-10T14:22:33.512Z,1019
2022-08-10T14:23:53.838Z,1019
2022-08-10T14:24:57.358Z,1019
2022-08-10T14:25:59.993Z,1019
2022-08-10T14:27:17.120Z,1019
2022-08-10T14:28:19.494Z,1019
2022-08-10T14:29:22.427Z,1019
2022-08-10T14:30:31.366Z,1019
2022-08-10T14:31:34.575Z,1019
2022-08-10T14:32:37.687Z,1019
2022-08-10T14:33:40.848Z,1019
2022-08-10T14:36:24.545Z,1019
2022-08-10T14:37:27.648Z,1019
2022-08-10T14:38:41.804Z,1019
2022-08-10T14:39:44.954Z,1019
2022-08-10T14:40:48.157Z,1018.9
2022-08-10T14:42:13.832Z,1018.9
2022-08-10T14:43:30.473Z,1018.9
2022-08-10T14:44:33.259Z,1018.8
2022-08-10T14:45:36.454Z,1018.9
2022-08-10T14:46:39.719Z,1018.9
2022-08-10T14:48:03.423Z,1018.8
2022-08-10T14:49:27.211Z,1018.8
2022-08-10T14:51:00.566Z,1018.8
2022-08-10T14:52:04.994Z,1018.8
2022-08-10T14:53:10.387Z,1018.8
2022-08-10T14:54:15.132Z,1018.8
2022-08-10T14:55:20.380Z,1018.8
2022-08-10T14:56:23.450Z,1018.7
2022-08-10T14:58:21.187Z,1018.8
2022-08-10T14:59:35.771Z,1018.7
2022-08-10T15:02:53.358Z,1018.7
2022-08-10T15:05:09.450Z,1018.7
2022-08-10T15:06:18.587Z,1018.7
2022-08-10T15:07:32.795Z,1018.7
2022-08-10T15:08:37.552Z,1018.6
2022-08-10T15:10:04.718Z,1018.6
2022-08-10T15:11:07.243Z,1018.6
2022-08-10T15:13:35.318Z,1018.6